METAR AND TAF INFORMATION


LFPO 262330Z 27006KT 240V300 CAVOK 16/12 Q1014 NOSIG
LFPO 262300Z 29006KT 260V320 CAVOK 16/12 Q1014 NOSIG
TAF LFPO 262300Z 2700/2806 27008KT 9999 BKN025 TEMPO 2700/2709 -RA BKN012 PROB30 TEMPO 2703/2707 2500 -RADZ BKN007 BECMG 2709/2711 SCT030 PROB40 TEMPO 2804/2806 27010G20KT 4000 SHRA BKN017TCU

 AIRPORT MAP

 RUNWAY INFORMATION
Runway 02 Runway length 7874 ft Runway width 197 ft
Runway elevation 287 ft Runway displaced threshold 0 ft Runway heading 18
Runway 20 Runway length 7874 ft Runway width 197 ft
Runway elevation 287 ft Runway displaced threshold 0 ft Runway heading 198
Runway 06 Runway length 11975 ft Runway width 148 ft
Runway elevation 283 ft Runway displaced threshold 984 ft Runway heading 62
Runway 24 Runway length 11975 ft Runway width 148 ft
Runway elevation 284 ft Runway displaced threshold 0 ft Runway heading 242
Runway 08 Runway length 10892 ft Runway width 148 ft
Runway elevation 277 ft Runway displaced threshold 0 ft Runway heading 74
Runway 26 Runway length 10892 ft Runway width 148 ft
Runway elevation 287 ft Runway displaced threshold 1427 ft Runway heading 254

 AIRPORT FREQUENCIES
Type APP Name APP Frequency 123.875 MHZ
Type ATIS Name ATIS Frequency 131.35 MHZ
Type DEP Name DEP Frequency 127.75 MHZ
Type GND Name GND Frequency 121.7 MHZ
Type PFLT Name PREFLIGHT Frequency 121.05 MHZ
Type TWR Name TWR Frequency 118.7 MHZ

 AIRPORT NEAR NAVIGATION AIDS
Type VOR-DME Name Orly Frequency 111200 KHZ